AirNav   Textron
 
 839 users online  

C98 Lake Village Airport
Lake Village, Indiana, USA

GOING TO LAKE VILLAGE?


FAA INFORMATION EFFECTIVE 14 SEPTEMBER 2017

Location

FAA Identifier: C98
Lat/Long: 41-09-00.1240N / 087-27-45.1180W
41-09.002067N / 087-27.751967W
41.1500344 / -87.4625328
(estimated)
Elevation: 644 ft. / 196 m (estimated)
Variation: 01W (1985)
From city: 1 mile NW of LAKE VILLAGE, IN
Time zone: UTC -5 (UTC -6 during Standard Time)
Zip code: 46349

Airport Operations

Airport use: Open to the public
Activation date: 03/1947
Control tower: no
ARTCC: CHICAGO CENTER
FSS: TERRE HAUTE FLIGHT SERVICE STATION
NOTAMs facility: HUF (NOTAM-D service available)
Attendance: SR-SS
Wind indicator: lighted
Segmented circle: no
Lights: ACTVT LIRL 18/36 CTAF;

Airport Communications

CTAF: 122.9
WX AWOS-AV at C56 (17 nm NW): 119.125 (708-534-5256)
WX AWOS-3P at RZL (18 nm SE): 119.175 (219-866-7167)
WX AWOS-3 at IKK (18 nm W): 128.475 (815-939-4044)

Nearby radio navigation aids

VOR radial/distance  VOR name  Freq  Var
EONr114/16.5PEOTONE VORTAC113.2002E
IKKr075/18.1KANKAKEE VOR/DME111.6000E
CGTr165/22.1CHICAGO HEIGHTS VORTAC114.2002E
OXIr254/38.1KNOX VOR/DME115.6000E
BVTr332/39.8BOILER VORTAC115.1001E

 
NDB name  Hdg/Dist  Freq  Var  ID
LA PORTE239/37.535603WIUL .. ..- .-..

Airport Services

Parking: tiedowns
Airframe service: MAJOR
Powerplant service: MAJOR

Runway Information

Runway 18/36

Dimensions: 2000 x 140 ft. / 610 x 43 m
RWY 18/36 WIDTH INCLUDES A FULL LENGTH 38 FT ASPH STRIP DOWN THE MIDDLE OF THE RY.
Surface: turf, in fair condition
Runway edge lights: low intensity
Runway edge markings: RWY 18/36 THLDS MARKED WITH 3 YELLOW TIRES/LIGHTS EACH SIDE.
RUNWAY 18  RUNWAY 36
Latitude: 41-09.132833N41-08.704667N
Longitude: 087-27.618500W087-27.618500W
Elevation: 640.0 ft.644.0 ft.
Traffic pattern: leftleft
Runway end identifier lights: nono
Obstructions: 10 ft. road, 250 ft. from runway, 25:1 slope to clear
RY 18 APCH RATIO 21:1 AT THLD - TREES.
15 ft. road, 320 ft. from runway, 21:1 slope to clear

Airport Ownership and Management from official FAA records

Ownership: Privately-owned
Owner: MICHAEL STEINLE
3644 W. STATE ROAD 10
LAKE VILLAGE, IN 46349
Phone 219-992-9200
Manager: MICHAEL STEINLE
3644 W. STATE ROAD 10
LAKE VILLAGE, IN 46349
Phone 219-992-9200

Airport Operational Statistics

Aircraft based on the field: 16
Single engine airplanes: 12
Gliders airplanes: 4
    
Aircraft operations: avg 100/week *
67% local general aviation
33% transient general aviation
* for 12-month period ending 31 December 2014

Additional Remarks

VEHICULAR TFC ON ROADWAY SRNDG RY.
DEER ON & INVOF ARPT.

Instrument Procedures

There are no published instrument procedures at C98.

Some nearby airports with instrument procedures:

C56 - Bult Field Airport (17 nm NW)
KRZL - Jasper County Airport (18 nm SE)
KIKK - Greater Kankakee Airport (18 nm W)
05C - Griffith-Merrillville Airport (22 nm N)
KIGQ - Lansing Municipal Airport (23 nm N)
 
Loc | Ops | Rwys | IFR | FBO | Links
Com | Nav | Svcs | Stats | Notes


 
Area around C98 (Lake Village Airport)
 
Road maps at: MapQuest Bing Google
 
Aerial photo
WARNING: Photo may not be current or correct
Aerial photo of C98 (Lake Village Airport)
Photo taken 17-Aug-2008

Do you have a better or more recent aerial photo of Lake Village Airport that you would like to share? If so, please send us your photo.

 
Sectional chart

 
Airport distance calculator
Flying to Lake Village Airport? Find the distance to fly.

From to C98

Sunrise and sunset
Times for 23-Sep-2017
 Local
(UTC-5)
 Zulu
(UTC)
Morning civil twilight06:1211:12
Sunrise06:3911:39
Sunset18:4523:45
Evening civil twilight19:1300:13

Current date and time
Zulu (UTC)  23-Sep-2017 23:53:27
Local (UTC-5)  23-Sep-2017 18:53:27
 
METAR
KRZL 
18nm SE 
232335Z AUTO 13004KT 10SM CLR 29/11 A3005 RMK AO2
KIKK 
18nm W 
232335Z AUTO 00000KT 10SM CLR 30/20 A3004 RMK AO2 T02950199
KIGQ 
23nm N 
232335Z AUTO 08006KT 10SM CLR 29/21 A3004 RMK AO2 T02890205
KVPZ 
28nm NE 
232256Z AUTO 11007KT 10SM CLR 31/19 A3006 RMK AO2 SLP172 T03110189 TSNO
KGYY 
28nm N 
232245Z 08006KT 10SM SKC 29/19 A3005
TAF
KGYY 
28nm N 
231733Z 2318/2418 15005KT P6SM SKC FM231900 05008KT P6SM FEW060 FM240200 VRB03KT P6SM SKC FM241500 15007KT P6SM SKC
NOTAMs
Click for the latest NOTAMs
NOTAMs are issued by the DoD/FAA and will open in a separate window not controlled by AirNav.

 

 
 

Would you like to see your business listed on this page?

 If your business provides an interesting product or service to pilots, flight crews, aircraft, or users of the Lake Village Airport, you should consider listing it here.  To start the listing process, click on the button below
 
Add a business
 

Other Pages about Lake Village Airport

Update a link
 
Copyright © AirNav, LLC. All rights reserved. Privacy Policy  Contact